Sample Charts Sidebar
> Live data! Your data is on the web site for you to access within minutes
 
> Detailed data is easily downloaded as data file, which can be opened with Excel
 
> Charts can be customised if necessary
  Chart 1
 

(A maximum of 50 rows are displayed here. Use "Export Data" to see all rows in the date range.)
Date Collected Temp
(Celcius)
WindChill
(Celcius)
WindSpeed
(km/hr)
Gust
(km/hr)
WindDir
(degrees)
2018-04-21 13:00 14.5 13.9 3 8 235
2018-04-21 12:00 13.8 13.3 3 6 244
2018-04-21 11:00 13.5 13.2 3 6 236
2018-04-21 10:00 12.8 12.8 1 3 238
2018-04-21 09:00 12.4 12.4 1 2 239
2018-04-21 08:00 12.1 12.1 0 1 270
2018-04-21 07:00 12.0 11.9 0 1 203
2018-04-21 06:00 11.9 11.9 1 2 240
2018-04-21 05:00 12.0 11.9 2 5 214
2018-04-21 04:00 12.1 12.0 2 6 216
2018-04-21 03:00 12.3 11.7 3 7 223
2018-04-21 02:00 12.4 12.2 2 7 233
2018-04-21 01:00 12.4 12.4 2 5 240
2018-04-21 00:00 12.7 11.8 3 10 234
2018-04-20 23:00 12.8 12.2 3 10 252
2018-04-20 22:00 14.0 13.9 2 7 249
2018-04-20 21:00 15.3 15.3 1 2 72
2018-04-20 20:00 16.5 15.6 4 11 315
2018-04-20 19:00 17.2 16.4 4 9 319
2018-04-20 18:00 17.3 15.5 5 18 341
2018-04-20 17:00 17.6 15.1 6 17 355
2018-04-20 16:00 17.9 14.9 7 21 355
2018-04-20 15:00 17.9 14.5 8 22 344
2018-04-20 14:00 17.8 14.3 8 20 353
2018-04-20 13:00 18.3 15.0 8 19 9
2018-04-20 12:00 19.0 15.4 9 27 353
2018-04-20 11:00 18.3 13.6 10 25 359
2018-04-20 10:00 16.3 12.9 7 21 348
2018-04-20 09:00 17.2 13.4 8 22 348
2018-04-20 08:00 17.1 14.5 6 21 347
2018-04-20 07:00 17.1 13.6 8 19 359
2018-04-20 06:00 17.4 15.0 6 16 3
2018-04-20 05:00 17.1 15.4 5 15 13
2018-04-20 04:00 17.5 16.6 4 11 19
2018-04-20 03:00 17.7 15.2 7 19 357
2018-04-20 02:00 17.8 16.3 5 12 14
2018-04-20 01:00 17.9 16.4 5 19 342
2018-04-20 00:00 18.3 17.6 4 8 24
2018-04-19 23:00 18.3 16.7 5 12 18
2018-04-19 22:00 18.5 15.8 7 19 10
2018-04-19 21:00 18.4 16.6 5 16 18
2018-04-19 20:00 18.5 15.8 7 19 347
2018-04-19 19:00 19.9 17.5 7 21 346
2018-04-19 18:00 20.0 16.6 9 19 347
2018-04-19 17:00 20.4 17.2 9 25 351
2018-04-19 16:00 20.7 18.5 7 21 5
2018-04-19 15:00 20.7 19.1 5 15 350
2018-04-19 14:00 20.4 16.5 10 28 348
2018-04-19 13:00 20.0 16.7 9 30 3
2018-04-19 12:00 19.9 16.8 8 23 6